In Rescue
 
Open Full Screen Window  High Contrast Mode
January 29, 2020 1:06 AM EST
Weather Information
Wind Direction
  ---
Wind Speed
  00 kt (0 mph)
Wind Gust
  00 kt (0 mph)
Altimeter
30.10 in
Visibility
10 SM
Temperature
-01° C
30° F
Dewpoint
-01° C
30° F
Humidity
100%
Sky Condition
Overcast @ 2,300 ft
MVFR

METAR KOEB 290606Z AUTO 00000KT 10SM OVC023 M01/M01 A3010 RMK AO2 T10151015

FAA Disclaimer: The data displayed is for advisory purposes only and is not to be used for flight planning or operations.